PH0B4 EHMZ-EHEH
Flight info
| Callsign | PH0B4 |
|---|---|
| Flight time | 0h 37m |
| Altitude | 3000 |
| Route | 513048N0034559E 513135N0034559E 513154N0034633E DCT 512844N0041856E DCT EHGR DCT 513000N0051142E 512959N0051723E 512845N0051916E |
| Aircraft | C172/L-SFG/C |
Departure
| Time | 2026-04-27 19:23 |
|---|---|
| Airport | Midden-Zeeland Airfield (EHMZ) |
Arrival
| Time | 2026-04-27 20:01 |
|---|---|
| Airport | Eindhoven Airport (EHEH) |
| Time | Latitude | Longitude | Altitude | Speed | Heading |
|---|---|---|---|---|---|
| 2026-04-27 19:23 | 51.50942 | 3.79956 | 1692 ft | 110 kts | 94° |
| 2026-04-27 19:23 | 51.50760 | 3.81175 | 1626 ft | 112 kts | 99° |
| 2026-04-27 19:23 | 51.50619 | 3.82404 | 1584 ft | 113 kts | 94° |
| 2026-04-27 19:24 | 51.50510 | 3.83671 | 1507 ft | 114 kts | 92° |
| 2026-04-27 19:24 | 51.50666 | 3.84849 | 1496 ft | 107 kts | 66° |
| 2026-04-27 19:24 | 51.50866 | 3.85987 | 1500 ft | 108 kts | 76° |
| 2026-04-27 19:24 | 51.51004 | 3.87173 | 1500 ft | 109 kts | 76° |
| 2026-04-27 19:25 | 51.51126 | 3.88220 | 1503 ft | 105 kts | 76° |
| 2026-04-27 19:25 | 51.51270 | 3.89384 | 1498 ft | 106 kts | 75° |
| 2026-04-27 19:25 | 51.51381 | 3.90562 | 1506 ft | 108 kts | 83° |
| 2026-04-27 19:25 | 51.51408 | 3.91756 | 1507 ft | 108 kts | 84° |
| 2026-04-27 19:26 | 51.51448 | 3.92957 | 1502 ft | 107 kts | 83° |
| 2026-04-27 19:26 | 51.51483 | 3.94150 | 1494 ft | 106 kts | 83° |
| 2026-04-27 19:26 | 51.51517 | 3.95343 | 1506 ft | 108 kts | 83° |
| 2026-04-27 19:26 | 51.51548 | 3.96547 | 1506 ft | 108 kts | 84° |
| 2026-04-27 19:27 | 51.51510 | 3.97752 | 1502 ft | 110 kts | 91° |
| 2026-04-27 19:27 | 51.51412 | 3.98965 | 1505 ft | 110 kts | 98° |
| 2026-04-27 19:27 | 51.51243 | 4.00168 | 1506 ft | 110 kts | 97° |
| 2026-04-27 19:27 | 51.51073 | 4.01367 | 1506 ft | 110 kts | 96° |
| 2026-04-27 19:28 | 51.50896 | 4.02569 | 1509 ft | 111 kts | 97° |
| 2026-04-27 19:28 | 51.50724 | 4.03759 | 1509 ft | 111 kts | 97° |
| 2026-04-27 19:28 | 51.50557 | 4.04982 | 1503 ft | 112 kts | 97° |
| 2026-04-27 19:28 | 51.50393 | 4.06205 | 1505 ft | 112 kts | 97° |
| 2026-04-27 19:29 | 51.50241 | 4.07410 | 1505 ft | 108 kts | 97° |
| 2026-04-27 19:29 | 51.50091 | 4.08588 | 1510 ft | 107 kts | 97° |
| 2026-04-27 19:29 | 51.49943 | 4.09756 | 1509 ft | 107 kts | 97° |
| 2026-04-27 19:29 | 51.49785 | 4.10935 | 1511 ft | 109 kts | 97° |
| 2026-04-27 19:30 | 51.49629 | 4.12130 | 1510 ft | 110 kts | 97° |
| 2026-04-27 19:30 | 51.49471 | 4.13337 | 1510 ft | 111 kts | 97° |
| 2026-04-27 19:30 | 51.49318 | 4.14550 | 1505 ft | 110 kts | 97° |
| 2026-04-27 19:30 | 51.49162 | 4.15737 | 1505 ft | 108 kts | 97° |
| 2026-04-27 19:31 | 51.49013 | 4.16909 | 1508 ft | 107 kts | 97° |
| 2026-04-27 19:31 | 51.48863 | 4.18085 | 1505 ft | 108 kts | 97° |
| 2026-04-27 19:31 | 51.48710 | 4.19281 | 1508 ft | 110 kts | 97° |
| 2026-04-27 19:31 | 51.48560 | 4.20479 | 1499 ft | 109 kts | 96° |
| 2026-04-27 19:32 | 51.48414 | 4.21647 | 1503 ft | 107 kts | 97° |
| 2026-04-27 19:32 | 51.48278 | 4.22823 | 1504 ft | 107 kts | 96° |
| 2026-04-27 19:32 | 51.48129 | 4.24004 | 1507 ft | 109 kts | 97° |
| 2026-04-27 19:32 | 51.47974 | 4.25199 | 1508 ft | 110 kts | 96° |
| 2026-04-27 19:33 | 51.47818 | 4.26402 | 1509 ft | 110 kts | 96° |
| 2026-04-27 19:33 | 51.47716 | 4.27198 | 1509 ft | 110 kts | 97° |
| 2026-04-27 19:33 | 51.47526 | 4.28794 | 1508 ft | 108 kts | 96° |
| 2026-04-27 19:33 | 51.47391 | 4.29973 | 1504 ft | 107 kts | 96° |
| 2026-04-27 19:34 | 51.47254 | 4.31146 | 1507 ft | 107 kts | 96° |
| 2026-04-27 19:34 | 51.47115 | 4.32302 | 1505 ft | 107 kts | 96° |
| 2026-04-27 19:34 | 51.46970 | 4.33482 | 1508 ft | 108 kts | 96° |
| 2026-04-27 19:34 | 51.46823 | 4.34671 | 1508 ft | 109 kts | 96° |
| 2026-04-27 19:35 | 51.46782 | 4.35862 | 1509 ft | 106 kts | 79° |
| 2026-04-27 19:35 | 51.46908 | 4.37030 | 1503 ft | 107 kts | 76° |
| 2026-04-27 19:35 | 51.47040 | 4.38197 | 1507 ft | 105 kts | 76° |
| 2026-04-27 19:35 | 51.47164 | 4.39349 | 1497 ft | 104 kts | 77° |
| 2026-04-27 19:36 | 51.47294 | 4.40481 | 1503 ft | 106 kts | 76° |
| 2026-04-27 19:36 | 51.47425 | 4.41646 | 1500 ft | 106 kts | 76° |
| 2026-04-27 19:36 | 51.47557 | 4.42804 | 1505 ft | 106 kts | 76° |
| 2026-04-27 19:36 | 51.47688 | 4.43961 | 1505 ft | 106 kts | 76° |
| 2026-04-27 19:37 | 51.47833 | 4.45120 | 1510 ft | 106 kts | 76° |
| 2026-04-27 19:37 | 51.47978 | 4.46285 | 1513 ft | 106 kts | 75° |
| 2026-04-27 19:37 | 51.48104 | 4.47452 | 1515 ft | 108 kts | 76° |
| 2026-04-27 19:37 | 51.48232 | 4.48639 | 1508 ft | 108 kts | 76° |
| 2026-04-27 19:38 | 51.48373 | 4.49816 | 1509 ft | 107 kts | 76° |
| 2026-04-27 19:38 | 51.48520 | 4.50977 | 1503 ft | 106 kts | 76° |
| 2026-04-27 19:38 | 51.48663 | 4.52138 | 1498 ft | 106 kts | 76° |
| 2026-04-27 19:38 | 51.48807 | 4.53295 | 1496 ft | 105 kts | 76° |
| 2026-04-27 19:39 | 51.48957 | 4.54437 | 1502 ft | 104 kts | 75° |
| 2026-04-27 19:39 | 51.49089 | 4.55588 | 1505 ft | 106 kts | 76° |
| 2026-04-27 19:39 | 51.49222 | 4.56747 | 1505 ft | 106 kts | 76° |
| 2026-04-27 19:39 | 51.49364 | 4.57903 | 1504 ft | 105 kts | 75° |
| 2026-04-27 19:40 | 51.49511 | 4.59068 | 1505 ft | 107 kts | 75° |
| 2026-04-27 19:40 | 51.49657 | 4.60243 | 1502 ft | 108 kts | 76° |
| 2026-04-27 19:40 | 51.49803 | 4.61422 | 1508 ft | 107 kts | 76° |
| 2026-04-27 19:40 | 51.49952 | 4.62581 | 1509 ft | 107 kts | 75° |
| 2026-04-27 19:41 | 51.50101 | 4.63765 | 1501 ft | 106 kts | 76° |
| 2026-04-27 19:41 | 51.50241 | 4.64901 | 1508 ft | 104 kts | 76° |
| 2026-04-27 19:41 | 51.50392 | 4.66046 | 1506 ft | 106 kts | 75° |
| 2026-04-27 19:41 | 51.50545 | 4.67216 | 1509 ft | 108 kts | 76° |
| 2026-04-27 19:42 | 51.50710 | 4.68379 | 1503 ft | 107 kts | 75° |
| 2026-04-27 19:42 | 51.50867 | 4.69543 | 1501 ft | 107 kts | 75° |
| 2026-04-27 19:42 | 51.51022 | 4.70711 | 1508 ft | 106 kts | 75° |
| 2026-04-27 19:42 | 51.51174 | 4.71869 | 1507 ft | 106 kts | 75° |
| 2026-04-27 19:43 | 51.51331 | 4.73029 | 1506 ft | 106 kts | 75° |
| 2026-04-27 19:43 | 51.51493 | 4.74196 | 1508 ft | 107 kts | 75° |
| 2026-04-27 19:43 | 51.51653 | 4.75367 | 1507 ft | 107 kts | 76° |
| 2026-04-27 19:43 | 51.51811 | 4.76536 | 1507 ft | 107 kts | 75° |
| 2026-04-27 19:44 | 51.51915 | 4.77311 | 1507 ft | 107 kts | 76° |
| 2026-04-27 19:44 | 51.52145 | 4.78841 | 1506 ft | 107 kts | 73° |
| 2026-04-27 19:44 | 51.52313 | 4.80010 | 1507 ft | 107 kts | 76° |
| 2026-04-27 19:44 | 51.52420 | 4.80777 | 1504 ft | 106 kts | 75° |
| 2026-04-27 19:45 | 51.52582 | 4.81930 | 1505 ft | 105 kts | 75° |
| 2026-04-27 19:45 | 51.52742 | 4.83079 | 1505 ft | 106 kts | 75° |
| 2026-04-27 19:45 | 51.52898 | 4.84240 | 1502 ft | 107 kts | 75° |
| 2026-04-27 19:45 | 51.53064 | 4.85409 | 1509 ft | 107 kts | 75° |
| 2026-04-27 19:46 | 51.53224 | 4.86569 | 1510 ft | 106 kts | 74° |
| 2026-04-27 19:46 | 51.53381 | 4.87716 | 1510 ft | 105 kts | 75° |
| 2026-04-27 19:46 | 51.53544 | 4.88860 | 1503 ft | 106 kts | 75° |
| 2026-04-27 19:46 | 51.53716 | 4.90022 | 1506 ft | 107 kts | 75° |
| 2026-04-27 19:47 | 51.53884 | 4.91187 | 1510 ft | 107 kts | 74° |
| 2026-04-27 19:47 | 51.54040 | 4.92343 | 1510 ft | 105 kts | 75° |
| 2026-04-27 19:47 | 51.54196 | 4.93489 | 1510 ft | 105 kts | 75° |
| 2026-04-27 19:47 | 51.54359 | 4.94631 | 1510 ft | 105 kts | 74° |
| 2026-04-27 19:48 | 51.54515 | 4.95772 | 1509 ft | 104 kts | 74° |
| 2026-04-27 19:48 | 51.54665 | 4.96886 | 1510 ft | 103 kts | 75° |
| 2026-04-27 19:48 | 51.54820 | 4.98019 | 1510 ft | 104 kts | 75° |
| 2026-04-27 19:48 | 51.54971 | 4.99160 | 1503 ft | 104 kts | 74° |
| 2026-04-27 19:49 | 51.55123 | 5.00281 | 1509 ft | 102 kts | 75° |
| 2026-04-27 19:49 | 51.55282 | 5.01395 | 1508 ft | 102 kts | 74° |
| 2026-04-27 19:49 | 51.55436 | 5.02523 | 1509 ft | 105 kts | 74° |
| 2026-04-27 19:49 | 51.55592 | 5.03665 | 1506 ft | 104 kts | 74° |
| 2026-04-27 19:50 | 51.55746 | 5.04791 | 1499 ft | 102 kts | 74° |
| 2026-04-27 19:50 | 51.55902 | 5.05901 | 1509 ft | 102 kts | 75° |
| 2026-04-27 19:50 | 51.55972 | 5.07015 | 1498 ft | 106 kts | 100° |
| 2026-04-27 19:50 | 51.55469 | 5.07931 | 1502 ft | 117 kts | 144° |
| 2026-04-27 19:51 | 51.54722 | 5.08483 | 1505 ft | 118 kts | 147° |
| 2026-04-27 19:51 | 51.53978 | 5.09041 | 1506 ft | 118 kts | 147° |
| 2026-04-27 19:51 | 51.53232 | 5.09608 | 1502 ft | 118 kts | 147° |
| 2026-04-27 19:51 | 51.52576 | 5.10327 | 1503 ft | 111 kts | 120° |
| 2026-04-27 19:52 | 51.52202 | 5.11367 | 1496 ft | 108 kts | 111° |
| 2026-04-27 19:52 | 51.51821 | 5.12425 | 1499 ft | 109 kts | 113° |
| 2026-04-27 19:52 | 51.51447 | 5.13472 | 1501 ft | 109 kts | 113° |
| 2026-04-27 19:52 | 51.51071 | 5.14532 | 1501 ft | 109 kts | 113° |
| 2026-04-27 19:53 | 51.50321 | 5.16662 | 1496 ft | 110 kts | 112° |
| 2026-04-27 19:53 | 51.49949 | 5.17742 | 1499 ft | 111 kts | 112° |
| 2026-04-27 19:53 | 51.49728 | 5.18886 | 1501 ft | 105 kts | 85° |
| 2026-04-27 19:54 | 51.49813 | 5.20039 | 1505 ft | 105 kts | 81° |
| 2026-04-27 19:54 | 51.49877 | 5.21217 | 1505 ft | 106 kts | 84° |
| 2026-04-27 19:54 | 51.49917 | 5.22400 | 1507 ft | 107 kts | 83° |
| 2026-04-27 19:54 | 51.49950 | 5.23591 | 1504 ft | 106 kts | 84° |
| 2026-04-27 19:55 | 51.49982 | 5.24761 | 1506 ft | 107 kts | 83° |
| 2026-04-27 19:55 | 51.50022 | 5.25939 | 1506 ft | 105 kts | 84° |
| 2026-04-27 19:55 | 51.50059 | 5.27107 | 1501 ft | 105 kts | 83° |
| 2026-04-27 19:55 | 51.50092 | 5.28270 | 1505 ft | 104 kts | 83° |
| 2026-04-27 19:56 | 51.50128 | 5.29436 | 1513 ft | 104 kts | 83° |
| 2026-04-27 19:56 | 51.49946 | 5.30552 | 1510 ft | 110 kts | 121° |
| 2026-04-27 19:56 | 51.49442 | 5.31484 | 1511 ft | 111 kts | 128° |
| 2026-04-27 19:56 | 51.48821 | 5.32276 | 1473 ft | 117 kts | 137° |
| 2026-04-27 19:57 | 51.48125 | 5.32973 | 1435 ft | 119 kts | 146° |
| 2026-04-27 19:57 | 51.47366 | 5.33502 | 1445 ft | 119 kts | 153° |
| 2026-04-27 19:57 | 51.46500 | 5.33634 | 1313 ft | 135 kts | 185° |
| 2026-04-27 19:57 | 51.45642 | 5.33079 | 1282 ft | 133 kts | 210° |
| 2026-04-27 19:58 | 51.44920 | 5.32111 | 1142 ft | 132 kts | 220° |
| 2026-04-27 19:58 | 51.44362 | 5.31267 | 1167 ft | 103 kts | 222° |
| 2026-04-27 19:58 | 51.43771 | 5.30713 | 1019 ft | 100 kts | 182° |
| 2026-04-27 19:58 | 51.43177 | 5.30995 | 901 ft | 87 kts | 131° |
| 2026-04-27 19:59 | 51.42822 | 5.31764 | 788 ft | 82 kts | 115° |
| 2026-04-27 19:59 | 51.42504 | 5.32502 | 727 ft | 82 kts | 117° |
| 2026-04-27 19:59 | 51.42278 | 5.33303 | 675 ft | 76 kts | 93° |
| 2026-04-27 19:59 | 51.42420 | 5.34091 | 631 ft | 75 kts | 59° |
| 2026-04-27 20:00 | 51.42769 | 5.34742 | 538 ft | 78 kts | 46° |
| 2026-04-27 20:00 | 51.43117 | 5.35271 | 458 ft | 66 kts | 40° |
| 2026-04-27 20:00 | 51.43462 | 5.35692 | 329 ft | 59 kts | 38° |
| 2026-04-27 20:00 | 51.43793 | 5.36069 | 226 ft | 58 kts | 35° |
| 2026-04-27 20:01 | 51.44105 | 5.36433 | 123 ft | 54 kts | 33° |
| 2026-04-27 20:01 | 51.44396 | 5.36758 | 75 ft | 43 kts | 34° |
| 2026-04-27 20:01 | 51.44584 | 5.36966 | 72 ft | 26 kts | 35° |
| 2026-04-27 20:01 | 51.44692 | 5.37088 | 71 ft | 19 kts | 36° |
| 2026-04-27 20:02 | 51.44751 | 5.37156 | 76 ft | 8 kts | 34° |
| 2026-04-27 20:02 | 51.44805 | 5.37195 | 75 ft | 7 kts | 236° |
| 2026-04-27 20:02 | 51.44755 | 5.37134 | 75 ft | 8 kts | 230° |
| 2026-04-27 20:02 | 51.44757 | 5.37045 | 75 ft | 11 kts | 318° |
| 2026-04-27 20:03 | 51.44806 | 5.36954 | 77 ft | 7 kts | 307° |
| 2026-04-27 20:03 | 51.44814 | 5.36945 | 77 ft | 0 kts | 340° |
| 2026-04-27 20:03 | 51.44828 | 5.36958 | 78 ft | 8 kts | 37° |
| 2026-04-27 20:03 | 51.44905 | 5.37048 | 75 ft | 20 kts | 32° |
| 2026-04-27 20:04 | 51.45039 | 5.37200 | 73 ft | 27 kts | 36° |
| 2026-04-27 20:04 | 51.45189 | 5.37366 | 72 ft | 24 kts | 37° |
| 2026-04-27 20:04 | 51.45278 | 5.37414 | 68 ft | 15 kts | 301° |
| 2026-04-27 20:04 | 51.45295 | 5.37370 | 73 ft | 7 kts | 302° |
| 2026-04-27 20:05 | 51.45354 | 5.37340 | 69 ft | 13 kts | 34° |
| 2026-04-27 20:05 | 51.45401 | 5.37422 | 73 ft | 2 kts | 113° |
| 2026-04-27 20:05 | 51.45395 | 5.37434 | 73 ft | 0 kts | 129° |